• Join FlightAware (Why Join?)
  • Login
  • US Flag 
05:49PM EST


 

Airport Tracker/Info


-or-


 

Live Flight TrackerFlight Track Log ✈ SWA4151 ✈ 06-Jan-2014 ✈ KSAN - KSMF

Flight Track Log - Related Links

Times and Time Zones

All times are in EST time to prevent confusion due to time zone crossing. See the SWA4151 flight status page for this flight to view local times or setup timezone preferences in your user account.

Time Position Orientation Groundspeed Altitude Reporting Facility
EST Latitude Longitude Course Direction KTS MPH feet Rate Location/Type
05:59PM 32.7764 -117.2836 304° West 201 231 3,900  Level Los Angeles Center
06:00PM 32.8286 -117.3850 302° West 271 312 8,200 3,480 Climbing Los Angeles Center
06:01PM 32.8714 -117.4653 302° West 284 327 11,200 3,000 Climbing Los Angeles Center
06:02PM 32.9489 -117.5383 322° Northwest 347 399 14,400 3,120 Climbing Los Angeles Center
06:03PM 33.0347 -117.6067 326° Northwest 368 423 17,700 3,180 Climbing Los Angeles Center
06:04PM 33.3438 -117.6064 North  Level Estimated
06:04PM 33.0997 -117.7100 307° West 385 443 21,000  Level Los Angeles Center
06:05PM 33.1569 -117.7892 311° West 390 449 23,200 2,700 Climbing Los Angeles Center
06:07PM 33.2919 -117.8981 326° Northwest 419 482 26,700 2,700 Climbing Los Angeles Center
06:08PM 33.3900 -117.9792 325° Northwest 426 490 28,800 2,280 Climbing Los Angeles Center
06:09PM 33.4897 -118.0614 325° Northwest 432 497 31,500 2,220 Climbing Los Angeles Center
06:10PM 33.5844 -118.1403 325° Northwest 420 483 33,500 1,980 Climbing Los Angeles Center
06:11PM 33.6794 -118.2189 325° Northwest 417 480 35,600 1,860 Climbing Los Angeles Center
06:12PM 33.7867 -118.3106 325° Northwest 419 482 37,400 1,020 Climbing Los Angeles Center
06:13PM 33.8775 -118.3856 326° Northwest 404 465 38,000 240 Climbing Los Angeles Center
06:14PM 33.9919 -118.4594 332° Northwest 394 453 38,000  Level Los Angeles Center
06:15PM 34.1147 -118.5153 339° North 395 455 38,000  Level Los Angeles Center
06:16PM 34.1967 -118.5525 339° North 394 453 38,000  Level Los Angeles Center
06:17PM 34.3181 -118.6081 339° North 390 449 38,000  Level Los Angeles Center
06:18PM 34.4208 -118.6539 340° North 393 452 38,000  Level Los Angeles Center
06:19PM 34.5225 -118.7017 339° North 393 452 38,000  Level Los Angeles Center
06:20PM 34.6253 -118.7481 340° North 395 455 38,000  Level Los Angeles Center
06:21PM 34.7486 -118.8047 339° North 396 456 38,000  Level Los Angeles Center
06:22PM 34.8528 -118.8536 339° North 401 461 38,000  Level Los Angeles Center
06:23PM 34.9589 -118.9014 340° North 398 458 38,000  Level Los Angeles Center
06:24PM 35.0617 -118.9492 339° North 397 457 38,000  Level Los Angeles Center
06:25PM 35.1650 -118.9964 340° North 400 460 38,000  Level Los Angeles Center
06:26PM 35.2703 -119.0447 339° North 405 466 38,000  Level Los Angeles Center
06:27PM 35.3925 -119.1031 339° North 396 456 38,000  Level Los Angeles Center
06:28PM 35.4956 -119.1503 340° North 397 457 38,000  Level Los Angeles Center
06:29PM 35.5983 -119.1992 339° North 397 457 38,000  Level Los Angeles Center
06:31PM 35.7008 -119.2472 339° North 397 457 38,000  Level Los Angeles Center
06:32PM 35.8025 -119.2956 339° North 395 455 38,000  Level Los Angeles Center
06:33PM 35.9033 -119.3439 339° North 395 455 38,000  Level Oakland Center
06:34PM 36.0050 -119.3928 339° North 394 453 38,000  Level Oakland Center
06:35PM 36.1031 -119.4386 339° North 386 444 38,000  Level Oakland Center
06:36PM 36.2019 -119.4928 336° Northwest 388 447 38,000  Level Oakland Center
06:37PM 36.3147 -119.5725 330° Northwest 390 449 38,000  Level Oakland Center
06:38PM 36.4086 -119.6381 331° Northwest 389 448 38,000  Level Oakland Center
06:39PM 36.5050 -119.7036 331° Northwest 393 452 38,000 -120 Level Oakland Center
06:40PM 36.6003 -119.7717 330° Northwest 396 456 37,800 -600 Descending Oakland Center
06:41PM 36.6969 -119.8369 332° Northwest 396 456 36,800 -900 Descending Oakland Center
06:42PM 36.7922 -119.9061 330° Northwest 397 457 36,000 -420 Descending Oakland Center
06:43PM 36.8864 -119.9714 331° Northwest 390 449 36,000 -1,080 Level Oakland Center
06:44PM 36.9767 -120.0358 330° Northwest 378 435 33,900 -1,800 Descending Oakland Center
06:45PM 37.0636 -120.0958 331° Northwest 359 413 32,400 -2,040 Descending Oakland Center
06:46PM 37.1592 -120.1642 330° Northwest 364 419 29,800 -2,340 Descending Oakland Center
06:47PM 37.2486 -120.2267 331° Northwest 368 423 27,700 -2,100 Descending Oakland Center
06:48PM 37.3394 -120.2914 330° Northwest 373 429 25,600 -1,920 Descending Oakland Center
06:49PM 37.4272 -120.3550 330° Northwest 366 421 23,900 -1,500 Descending Oakland Center
06:50PM 37.5000 -120.4333 320° Northwest 339 390 22,800 -1,020 Descending Northern Cal TRACON
06:51PM 37.5833 -120.5000 328° Northwest 338 389 22,000 -840 Descending Northern Cal TRACON
06:52PM 37.6500 -120.5833 315° West 338 389 21,200 -900 Descending Northern Cal TRACON
06:53PM 37.7333 -120.6500 328° Northwest 338 389 20,200 -960 Descending Northern Cal TRACON
06:54PM 37.8100 -120.7386 318° Northwest 335 386 19,100 -960 Descending Oakland Center
06:55PM 37.8822 -120.8111 322° Northwest 333 383 18,100 -1,380 Descending Oakland Center
06:56PM 37.9447 -120.8936 314° West 324 373 16,300 -1,980 Descending Oakland Center
06:57PM 38.0106 -120.9789 314° West 336 387 14,100 -1,920 Descending Oakland Center
06:58PM 38.0747 -121.0636 314° West 334 384 12,400 -2,040 Descending Oakland Center
06:59PM 38.1333 -121.1333 317° Northwest 326 375 10,600 -1,620 Descending Northern Cal TRACON
07:00PM 38.1833 -121.2000 314° West 294 338 9,700 -1,200 Descending Northern Cal TRACON
07:01PM 38.2333 -121.2833 307° West 278 320 8,300 -1,500 Descending Northern Cal TRACON
07:02PM 38.3000 -121.3500 322° Northwest 279 321 6,700 -1,680 Descending Northern Cal TRACON
07:03PM 38.3500 -121.4167 314° West 277 319 5,200 -1,620 Descending Northern Cal TRACON
07:04PM 38.4167 -121.4667 330° Northwest 276 318 3,700 -1,140 Descending Northern Cal TRACON
07:05PM 38.4667 -121.5000 332° Northwest 259 298 3,000 -720 Descending Northern Cal TRACON
07:06PM 38.5333 -121.5500 330° Northwest 228 262 2,300 -720 Descending Northern Cal TRACON
07:07PM 38.5833 -121.5833 332° Northwest 215 247 1,600 -540 Descending Northern Cal TRACON
07:08PM 38.6333 -121.6000 345° North 162 186 1,300 -600 Descending Northern Cal TRACON
07:09PM 38.6667 -121.6000 360° North 134 154 500 -840 Descending Northern Cal TRACON
07:11PM 38.6833 -121.5833 46° Northeast  Level FlightAware Approximate
07:18PM 38.6954 -121.5908 46° Northeast  Level Estimated